Liberty City, Texas
Current Conditions -  °F | °C
As of 12:53 AM on Saturday 20 Dec 2014 (Local Time) from KGGG Reporting Station
Overcast Overcast  
Wind Chill: 47°   Ceiling: 700
Heat Index: 47°   Visibility: 7mi
Dew Point: 44°   Wind: 3mph
Humidity: 90%   Direction: 50°NE
Pressure: 30.18"   Gusts: NA
Location:  32.3769°N, 94.8692°W
Report Text: KGGG 200653Z AUTO 05003KT 7SM OVC007 08/07 A3018 RMK AO2 SLP223 T00830067
Loading
Personal Weather Stations






























Interactive Weather Map New forecast layout! Learn more

10-Day Weather Forecast

Advertisements
Track Severe Weather on mobile